sensor_id;sensor_type;location;lat;lon;timestamp;temperature;humidity
20057;DHT22;10189;49.546;7.906;2022-09-23T00:01:09;4.60;99.30
20057;DHT22;10189;49.546;7.906;2022-09-23T00:03:38;4.50;99.50
20057;DHT22;10189;49.546;7.906;2022-09-23T00:06:08;4.40;99.50
20057;DHT22;10189;49.546;7.906;2022-09-23T00:08:36;4.40;99.90
20057;DHT22;10189;49.546;7.906;2022-09-23T00:11:10;4.50;99.90
20057;DHT22;10189;49.546;7.906;2022-09-23T00:13:42;4.40;99.90
20057;DHT22;10189;49.546;7.906;2022-09-23T00:16:14;4.50;99.90
20057;DHT22;10189;49.546;7.906;2022-09-23T00:18:43;4.40;99.90
20057;DHT22;10189;49.546;7.906;2022-09-23T00:21:12;4.50;99.90
20057;DHT22;10189;49.546;7.906;2022-09-23T00:23:39;4.50;99.90
20057;DHT22;10189;49.546;7.906;2022-09-23T00:26:09;4.50;99.90
20057;DHT22;10189;49.546;7.906;2022-09-23T00:28:37;4.50;99.90
20057;DHT22;10189;49.546;7.906;2022-09-23T00:31:09;4.60;99.90
20057;DHT22;10189;49.546;7.906;2022-09-23T00:33:36;4.60;99.90
20057;DHT22;10189;49.546;7.906;2022-09-23T00:36:05;4.50;99.90
20057;DHT22;10189;49.546;7.906;2022-09-23T00:38:39;4.50;99.90
20057;DHT22;10189;49.546;7.906;2022-09-23T00:41:06;4.50;99.90
20057;DHT22;10189;49.546;7.906;2022-09-23T00:46:39;4.50;99.90
20057;DHT22;10189;49.546;7.906;2022-09-23T00:49:22;4.40;99.90
20057;DHT22;10189;49.546;7.906;2022-09-23T00:51:56;4.30;99.90
20057;DHT22;10189;49.546;7.906;2022-09-23T00:54:26;4.30;99.90
20057;DHT22;10189;49.546;7.906;2022-09-23T00:56:54;4.40;99.90
20057;DHT22;10189;49.546;7.906;2022-09-23T00:59:22;4.40;99.90
20057;DHT22;10189;49.546;7.906;2022-09-23T01:01:52;4.40;99.90
20057;DHT22;10189;49.546;7.906;2022-09-23T01:04:22;4.40;99.90
20057;DHT22;10189;49.546;7.906;2022-09-23T01:06:49;4.50;99.90
20057;DHT22;10189;49.546;7.906;2022-09-23T01:09:16;4.50;99.90
20057;DHT22;10189;49.546;7.906;2022-09-23T01:11:50;4.50;99.90
20057;DHT22;10189;49.546;7.906;2022-09-23T01:14:51;4.40;99.90
20057;DHT22;10189;49.546;7.906;2022-09-23T01:17:38;4.50;99.90
20057;DHT22;10189;49.546;7.906;2022-09-23T01:26:12;4.60;99.90
20057;DHT22;10189;49.546;7.906;2022-09-23T01:41:15;4.30;99.90
20057;DHT22;10189;49.546;7.906;2022-09-23T01:46:31;4.20;99.90
20057;DHT22;10189;49.546;7.906;2022-09-23T01:49:16;4.10;99.90
20057;DHT22;10189;49.546;7.906;2022-09-23T01:51:57;4.00;99.90
20057;DHT22;10189;49.546;7.906;2022-09-23T01:54:37;3.90;99.90
20057;DHT22;10189;49.546;7.906;2022-09-23T01:57:19;3.90;99.90
20057;DHT22;10189;49.546;7.906;2022-09-23T02:00:09;3.90;99.90
20057;DHT22;10189;49.546;7.906;2022-09-23T02:03:01;3.90;99.90
20057;DHT22;10189;49.546;7.906;2022-09-23T02:05:37;3.80;99.90
20057;DHT22;10189;49.546;7.906;2022-09-23T02:08:13;3.70;99.90
20057;DHT22;10189;49.546;7.906;2022-09-23T02:10:53;3.70;99.90
20057;DHT22;10189;49.546;7.906;2022-09-23T02:15:55;3.60;99.90
20057;DHT22;10189;49.546;7.906;2022-09-23T02:18:27;3.50;99.90
20057;DHT22;10189;49.546;7.906;2022-09-23T02:21:02;3.50;99.90
20057;DHT22;10189;49.546;7.906;2022-09-23T02:23:35;3.40;99.90
20057;DHT22;10189;49.546;7.906;2022-09-23T02:46:11;3.40;99.90
20057;DHT22;10189;49.546;7.906;2022-09-23T02:48:47;3.30;99.90
20057;DHT22;10189;49.546;7.906;2022-09-23T02:51:18;3.30;99.90
20057;DHT22;10189;49.546;7.906;2022-09-23T02:53:44;3.20;99.90
20057;DHT22;10189;49.546;7.906;2022-09-23T02:56:15;3.20;99.90
20057;DHT22;10189;49.546;7.906;2022-09-23T02:58:45;3.20;99.90
20057;DHT22;10189;49.546;7.906;2022-09-23T03:01:37;3.20;99.90
20057;DHT22;10189;49.546;7.906;2022-09-23T03:18:17;3.20;99.90
20057;DHT22;10189;49.546;7.906;2022-09-23T03:21:05;3.20;99.90
20057;DHT22;10189;49.546;7.906;2022-09-23T03:23:36;3.20;99.90
20057;DHT22;10189;49.546;7.906;2022-09-23T03:26:06;3.10;99.90
20057;DHT22;10189;49.546;7.906;2022-09-23T03:28:37;3.10;99.90
20057;DHT22;10189;49.546;7.906;2022-09-23T03:31:07;3.10;99.90
20057;DHT22;10189;49.546;7.906;2022-09-23T03:33:35;3.10;99.90
20057;DHT22;10189;49.546;7.906;2022-09-23T03:36:09;3.10;99.90
20057;DHT22;10189;49.546;7.906;2022-09-23T03:39:04;3.10;99.90
20057;DHT22;10189;49.546;7.906;2022-09-23T03:41:40;3.10;99.90
20057;DHT22;10189;49.546;7.906;2022-09-23T03:44:10;3.00;99.90
20057;DHT22;10189;49.546;7.906;2022-09-23T03:46:36;3.00;99.90
20057;DHT22;10189;49.546;7.906;2022-09-23T03:49:16;3.00;99.90
20057;DHT22;10189;49.546;7.906;2022-09-23T03:51:45;3.00;99.90
20057;DHT22;10189;49.546;7.906;2022-09-23T03:54:11;3.00;99.90
20057;DHT22;10189;49.546;7.906;2022-09-23T03:56:36;3.00;99.90
20057;DHT22;10189;49.546;7.906;2022-09-23T03:59:02;3.00;99.90
20057;DHT22;10189;49.546;7.906;2022-09-23T04:01:28;3.00;99.90
20057;DHT22;10189;49.546;7.906;2022-09-23T04:03:54;2.90;99.90
20057;DHT22;10189;49.546;7.906;2022-09-23T04:06:20;2.90;99.90
20057;DHT22;10189;49.546;7.906;2022-09-23T04:08:47;2.80;99.90
20057;DHT22;10189;49.546;7.906;2022-09-23T04:11:13;2.80;99.90
20057;DHT22;10189;49.546;7.906;2022-09-23T04:13:39;2.70;99.90
20057;DHT22;10189;49.546;7.906;2022-09-23T04:16:05;2.70;99.90
20057;DHT22;10189;49.546;7.906;2022-09-23T04:18:31;2.60;99.90
20057;DHT22;10189;49.546;7.906;2022-09-23T04:21:00;2.70;99.90
20057;DHT22;10189;49.546;7.906;2022-09-23T04:23:26;2.70;99.90
20057;DHT22;10189;49.546;7.906;2022-09-23T04:25:52;2.60;99.90
20057;DHT22;10189;49.546;7.906;2022-09-23T04:28:18;2.60;99.90
20057;DHT22;10189;49.546;7.906;2022-09-23T04:30:46;2.60;99.90
20057;DHT22;10189;49.546;7.906;2022-09-23T04:33:14;2.60;99.90
20057;DHT22;10189;49.546;7.906;2022-09-23T04:35:41;2.70;99.90
20057;DHT22;10189;49.546;7.906;2022-09-23T04:38:10;2.60;99.90
20057;DHT22;10189;49.546;7.906;2022-09-23T04:40:37;2.60;99.90
20057;DHT22;10189;49.546;7.906;2022-09-23T04:43:03;2.60;99.90
20057;DHT22;10189;49.546;7.906;2022-09-23T04:45:29;2.60;99.90
20057;DHT22;10189;49.546;7.906;2022-09-23T04:47:55;2.60;99.90
20057;DHT22;10189;49.546;7.906;2022-09-23T04:50:24;2.70;99.90
20057;DHT22;10189;49.546;7.906;2022-09-23T04:52:51;2.70;99.90
20057;DHT22;10189;49.546;7.906;2022-09-23T04:55:17;2.60;99.90
20057;DHT22;10189;49.546;7.906;2022-09-23T04:57:43;2.70;99.90
20057;DHT22;10189;49.546;7.906;2022-09-23T05:00:10;2.70;99.90
20057;DHT22;10189;49.546;7.906;2022-09-23T05:02:44;2.60;99.90
20057;DHT22;10189;49.546;7.906;2022-09-23T05:05:11;2.60;99.90
20057;DHT22;10189;49.546;7.906;2022-09-23T05:07:38;2.60;99.90
20057;DHT22;10189;49.546;7.906;2022-09-23T05:10:05;2.70;99.90
20057;DHT22;10189;49.546;7.906;2022-09-23T05:12:32;2.70;99.90
20057;DHT22;10189;49.546;7.906;2022-09-23T05:14:57;2.70;99.90
20057;DHT22;10189;49.546;7.906;2022-09-23T05:17:24;2.80;99.90
20057;DHT22;10189;49.546;7.906;2022-09-23T05:19:49;2.80;99.90
20057;DHT22;10189;49.546;7.906;2022-09-23T05:22:15;2.90;99.90
20057;DHT22;10189;49.546;7.906;2022-09-23T05:24:41;2.90;99.90
20057;DHT22;10189;49.546;7.906;2022-09-23T05:27:07;2.90;99.90
20057;DHT22;10189;49.546;7.906;2022-09-23T05:29:33;2.90;99.90
20057;DHT22;10189;49.546;7.906;2022-09-23T05:31:59;2.90;99.90
20057;DHT22;10189;49.546;7.906;2022-09-23T05:34:29;2.90;99.90
20057;DHT22;10189;49.546;7.906;2022-09-23T05:36:56;2.90;99.90
20057;DHT22;10189;49.546;7.906;2022-09-23T05:39:22;3.00;99.90
20057;DHT22;10189;49.546;7.906;2022-09-23T05:41:48;3.00;99.90
20057;DHT22;10189;49.546;7.906;2022-09-23T05:44:14;3.10;99.90
20057;DHT22;10189;49.546;7.906;2022-09-23T05:46:40;3.10;99.90
20057;DHT22;10189;49.546;7.906;2022-09-23T05:49:06;3.10;99.90
20057;DHT22;10189;49.546;7.906;2022-09-23T05:51:33;3.20;99.90
20057;DHT22;10189;49.546;7.906;2022-09-23T05:54:00;3.30;99.90
20057;DHT22;10189;49.546;7.906;2022-09-23T05:56:29;3.30;99.90
20057;DHT22;10189;49.546;7.906;2022-09-23T05:58:57;3.40;99.90
20057;DHT22;10189;49.546;7.906;2022-09-23T06:01:30;3.50;99.90
20057;DHT22;10189;49.546;7.906;2022-09-23T06:04:00;3.60;99.90
20057;DHT22;10189;49.546;7.906;2022-09-23T06:06:32;3.70;99.90
20057;DHT22;10189;49.546;7.906;2022-09-23T06:09:03;3.80;99.90
20057;DHT22;10189;49.546;7.906;2022-09-23T06:11:32;3.80;99.90
20057;DHT22;10189;49.546;7.906;2022-09-23T06:13:59;3.90;99.90
20057;DHT22;10189;49.546;7.906;2022-09-23T06:16:27;4.00;99.90
20057;DHT22;10189;49.546;7.906;2022-09-23T06:18:54;4.00;99.90
20057;DHT22;10189;49.546;7.906;2022-09-23T06:21:20;4.00;99.90
20057;DHT22;10189;49.546;7.906;2022-09-23T06:23:46;4.10;99.90
20057;DHT22;10189;49.546;7.906;2022-09-23T06:26:13;4.10;99.90
20057;DHT22;10189;49.546;7.906;2022-09-23T06:28:41;4.20;99.90
20057;DHT22;10189;49.546;7.906;2022-09-23T06:31:13;4.20;99.90
20057;DHT22;10189;49.546;7.906;2022-09-23T06:33:42;4.30;99.90
20057;DHT22;10189;49.546;7.906;2022-09-23T06:36:10;4.40;99.90
20057;DHT22;10189;49.546;7.906;2022-09-23T06:38:41;4.50;99.90
20057;DHT22;10189;49.546;7.906;2022-09-23T06:41:13;4.50;99.90
20057;DHT22;10189;49.546;7.906;2022-09-23T06:43:39;4.50;99.90
20057;DHT22;10189;49.546;7.906;2022-09-23T06:46:06;4.60;99.90
20057;DHT22;10189;49.546;7.906;2022-09-23T06:48:33;4.60;99.90
20057;DHT22;10189;49.546;7.906;2022-09-23T06:51:01;4.70;99.90
20057;DHT22;10189;49.546;7.906;2022-09-23T06:53:30;4.80;99.90
20057;DHT22;10189;49.546;7.906;2022-09-23T06:56:08;4.90;99.20
20057;DHT22;10189;49.546;7.906;2022-09-23T06:58:36;5.00;98.30
20057;DHT22;10189;49.546;7.906;2022-09-23T07:01:12;5.10;97.70
20057;DHT22;10189;49.546;7.906;2022-09-23T07:03:43;5.20;97.30
20057;DHT22;10189;49.546;7.906;2022-09-23T07:06:10;5.40;97.20
20057;DHT22;10189;49.546;7.906;2022-09-23T07:08:36;5.60;96.60
20057;DHT22;10189;49.546;7.906;2022-09-23T07:11:04;5.80;97.30
20057;DHT22;10189;49.546;7.906;2022-09-23T07:13:32;6.00;97.10
20057;DHT22;10189;49.546;7.906;2022-09-23T07:15:59;6.10;96.00
20057;DHT22;10189;49.546;7.906;2022-09-23T07:18:31;6.20;94.80
20057;DHT22;10189;49.546;7.906;2022-09-23T07:21:05;6.30;93.20
20057;DHT22;10189;49.546;7.906;2022-09-23T07:23:33;6.40;92.20
20057;DHT22;10189;49.546;7.906;2022-09-23T07:26:00;6.50;91.90
20057;DHT22;10189;49.546;7.906;2022-09-23T07:28:26;6.60;91.90
20057;DHT22;10189;49.546;7.906;2022-09-23T07:30:53;6.70;91.40
20057;DHT22;10189;49.546;7.906;2022-09-23T07:33:20;6.80;90.40
20057;DHT22;10189;49.546;7.906;2022-09-23T07:35:46;6.80;89.00
20057;DHT22;10189;49.546;7.906;2022-09-23T07:38:11;6.80;89.40
20057;DHT22;10189;49.546;7.906;2022-09-23T07:40:38;6.80;89.70
20057;DHT22;10189;49.546;7.906;2022-09-23T07:43:05;6.80;89.90
20057;DHT22;10189;49.546;7.906;2022-09-23T07:45:32;6.80;90.70
20057;DHT22;10189;49.546;7.906;2022-09-23T07:47:59;6.90;89.70
20057;DHT22;10189;49.546;7.906;2022-09-23T07:50:26;6.80;89.40
20057;DHT22;10189;49.546;7.906;2022-09-23T07:52:54;6.90;90.20
20057;DHT22;10189;49.546;7.906;2022-09-23T07:55:20;7.10;89.50
20057;DHT22;10189;49.546;7.906;2022-09-23T07:57:46;7.10;89.10
20057;DHT22;10189;49.546;7.906;2022-09-23T08:00:12;7.20;89.00
20057;DHT22;10189;49.546;7.906;2022-09-23T08:02:39;7.40;87.10
20057;DHT22;10189;49.546;7.906;2022-09-23T08:05:06;7.40;87.00
20057;DHT22;10189;49.546;7.906;2022-09-23T08:07:32;7.50;88.40
20057;DHT22;10189;49.546;7.906;2022-09-23T08:09:59;7.70;88.40
20057;DHT22;10189;49.546;7.906;2022-09-23T08:12:27;7.90;87.80
20057;DHT22;10189;49.546;7.906;2022-09-23T08:14:54;8.10;87.10
20057;DHT22;10189;49.546;7.906;2022-09-23T08:17:20;8.30;86.80
20057;DHT22;10189;49.546;7.906;2022-09-23T08:19:46;8.50;86.00
20057;DHT22;10189;49.546;7.906;2022-09-23T08:22:12;8.60;85.60
20057;DHT22;10189;49.546;7.906;2022-09-23T08:24:38;8.80;84.90
20057;DHT22;10189;49.546;7.906;2022-09-23T08:27:03;9.00;84.80
20057;DHT22;10189;49.546;7.906;2022-09-23T08:29:29;9.30;83.90
20057;DHT22;10189;49.546;7.906;2022-09-23T08:31:55;9.40;82.60
20057;DHT22;10189;49.546;7.906;2022-09-23T08:34:22;9.60;82.30
20057;DHT22;10189;49.546;7.906;2022-09-23T08:36:48;9.70;82.10
20057;DHT22;10189;49.546;7.906;2022-09-23T08:39:18;9.80;81.70
20057;DHT22;10189;49.546;7.906;2022-09-23T08:42:29;10.00;81.30
20057;DHT22;10189;49.546;7.906;2022-09-23T08:45:01;10.30;79.70
20057;DHT22;10189;49.546;7.906;2022-09-23T08:47:53;10.40;79.80
20057;DHT22;10189;49.546;7.906;2022-09-23T08:50:35;10.60;78.50
20057;DHT22;10189;49.546;7.906;2022-09-23T08:53:36;10.70;79.30
20057;DHT22;10189;49.546;7.906;2022-09-23T08:56:05;10.90;77.90
20057;DHT22;10189;49.546;7.906;2022-09-23T09:04:00;11.60;78.40
20057;DHT22;10189;49.546;7.906;2022-09-23T09:06:33;11.70;75.70
20057;DHT22;10189;49.546;7.906;2022-09-23T09:09:09;11.80;75.20
20057;DHT22;10189;49.546;7.906;2022-09-23T09:11:45;12.00;75.20
20057;DHT22;10189;49.546;7.906;2022-09-23T09:14:25;12.30;74.00
20057;DHT22;10189;49.546;7.906;2022-09-23T09:17:04;12.50;72.90
20057;DHT22;10189;49.546;7.906;2022-09-23T09:19:55;12.70;69.80
20057;DHT22;10189;49.546;7.906;2022-09-23T09:22:54;13.00;71.60
20057;DHT22;10189;49.546;7.906;2022-09-23T09:25:45;13.20;70.20
20057;DHT22;10189;49.546;7.906;2022-09-23T09:34:16;14.00;65.10
20057;DHT22;10189;49.546;7.906;2022-09-23T09:37:53;14.10;62.70
20057;DHT22;10189;49.546;7.906;2022-09-23T09:40:04;14.30;64.10
20057;DHT22;10189;49.546;7.906;2022-09-23T09:42:40;14.30;62.10
20057;DHT22;10189;49.546;7.906;2022-09-23T09:45:11;14.30;62.30
20057;DHT22;10189;49.546;7.906;2022-09-23T09:50:52;14.40;63.50
20057;DHT22;10189;49.546;7.906;2022-09-23T09:53:28;14.60;63.00
20057;DHT22;10189;49.546;7.906;2022-09-23T09:56:07;14.80;62.40
20057;DHT22;10189;49.546;7.906;2022-09-23T10:01:36;15.30;62.00
20057;DHT22;10189;49.546;7.906;2022-09-23T10:04:05;15.50;60.60
20057;DHT22;10189;49.546;7.906;2022-09-23T10:07:04;15.60;60.30
20057;DHT22;10189;49.546;7.906;2022-09-23T10:09:34;15.80;59.00
20057;DHT22;10189;49.546;7.906;2022-09-23T10:12:19;15.90;60.20
20057;DHT22;10189;49.546;7.906;2022-09-23T10:14:49;16.00;60.80
20057;DHT22;10189;49.546;7.906;2022-09-23T10:17:32;16.10;61.40
20057;DHT22;10189;49.546;7.906;2022-09-23T10:20:06;16.20;58.20
20057;DHT22;10189;49.546;7.906;2022-09-23T10:22:36;16.20;56.70
20057;DHT22;10189;49.546;7.906;2022-09-23T10:25:08;16.30;59.60
20057;DHT22;10189;49.546;7.906;2022-09-23T10:27:41;16.40;58.60
20057;DHT22;10189;49.546;7.906;2022-09-23T10:30:21;16.40;57.30
20057;DHT22;10189;49.546;7.906;2022-09-23T10:32:51;16.40;57.00
20057;DHT22;10189;49.546;7.906;2022-09-23T10:35:23;16.50;56.50
20057;DHT22;10189;49.546;7.906;2022-09-23T10:37:54;16.60;56.90
20057;DHT22;10189;49.546;7.906;2022-09-23T10:40:37;16.70;55.60
20057;DHT22;10189;49.546;7.906;2022-09-23T10:43:43;16.60;56.10
20057;DHT22;10189;49.546;7.906;2022-09-23T10:46:46;16.60;57.50
20057;DHT22;10189;49.546;7.906;2022-09-23T10:52:29;17.00;55.00
20057;DHT22;10189;49.546;7.906;2022-09-23T10:55:40;17.00;55.00
20057;DHT22;10189;49.546;7.906;2022-09-23T10:58:46;17.20;55.90
20057;DHT22;10189;49.546;7.906;2022-09-23T11:07:58;17.60;53.30
20057;DHT22;10189;49.546;7.906;2022-09-23T11:10:47;17.70;54.00
20057;DHT22;10189;49.546;7.906;2022-09-23T11:13:47;17.90;53.00
20057;DHT22;10189;49.546;7.906;2022-09-23T11:28:15;18.10;52.00
20057;DHT22;10189;49.546;7.906;2022-09-23T11:31:15;18.20;52.40
20057;DHT22;10189;49.546;7.906;2022-09-23T11:37:19;18.10;49.90
20057;DHT22;10189;49.546;7.906;2022-09-23T11:39:57;18.10;51.40
20057;DHT22;10189;49.546;7.906;2022-09-23T11:42:43;18.00;50.40
20057;DHT22;10189;49.546;7.906;2022-09-23T11:45:29;18.00;52.50
20057;DHT22;10189;49.546;7.906;2022-09-23T11:48:04;18.40;50.60
20057;DHT22;10189;49.546;7.906;2022-09-23T11:50:41;18.50;50.00
20057;DHT22;10189;49.546;7.906;2022-09-23T11:53:35;18.30;48.30
20057;DHT22;10189;49.546;7.906;2022-09-23T11:56:35;17.90;51.70
20057;DHT22;10189;49.546;7.906;2022-09-23T12:02:20;18.20;52.70
20057;DHT22;10189;49.546;7.906;2022-09-23T12:05:02;18.50;51.70
20057;DHT22;10189;49.546;7.906;2022-09-23T12:07:58;18.50;48.30
20057;DHT22;10189;49.546;7.906;2022-09-23T12:25:57;18.50;51.20
20057;DHT22;10189;49.546;7.906;2022-09-23T12:28:38;18.60;46.30
20057;DHT22;10189;49.546;7.906;2022-09-23T12:31:11;18.60;48.60
20057;DHT22;10189;49.546;7.906;2022-09-23T12:33:51;18.80;49.20
20057;DHT22;10189;49.546;7.906;2022-09-23T12:36:30;18.90;47.60
20057;DHT22;10189;49.546;7.906;2022-09-23T12:41:47;18.60;47.90
20057;DHT22;10189;49.546;7.906;2022-09-23T12:44:37;18.40;48.50
20057;DHT22;10189;49.546;7.906;2022-09-23T12:49:48;18.20;49.80
20057;DHT22;10189;49.546;7.906;2022-09-23T12:54:43;18.50;50.30
20057;DHT22;10189;49.546;7.906;2022-09-23T13:02:39;18.20;46.90
20057;DHT22;10189;49.546;7.906;2022-09-23T13:05:22;18.20;47.40
20057;DHT22;10189;49.546;7.906;2022-09-23T13:08:18;18.40;48.40
20057;DHT22;10189;49.546;7.906;2022-09-23T13:10:56;18.70;47.10
20057;DHT22;10189;49.546;7.906;2022-09-23T13:13:36;18.90;47.00
20057;DHT22;10189;49.546;7.906;2022-09-23T13:16:30;19.20;49.20
20057;DHT22;10189;49.546;7.906;2022-09-23T13:19:04;19.60;47.20
20057;DHT22;10189;49.546;7.906;2022-09-23T13:26:48;19.70;46.80
20057;DHT22;10189;49.546;7.906;2022-09-23T13:32:11;19.40;46.80
20057;DHT22;10189;49.546;7.906;2022-09-23T13:34:40;19.30;45.50
20057;DHT22;10189;49.546;7.906;2022-09-23T13:37:24;19.30;46.70
20057;DHT22;10189;49.546;7.906;2022-09-23T13:40:15;19.40;45.80
20057;DHT22;10189;49.546;7.906;2022-09-23T13:43:00;19.30;43.40
20057;DHT22;10189;49.546;7.906;2022-09-23T13:45:30;19.00;45.40
20057;DHT22;10189;49.546;7.906;2022-09-23T13:48:05;18.60;43.60
20057;DHT22;10189;49.546;7.906;2022-09-23T13:50:36;18.00;45.20
20057;DHT22;10189;49.546;7.906;2022-09-23T13:53:09;17.90;48.20
20057;DHT22;10189;49.546;7.906;2022-09-23T13:55:38;17.80;49.10
20057;DHT22;10189;49.546;7.906;2022-09-23T14:00:45;18.00;46.30
20057;DHT22;10189;49.546;7.906;2022-09-23T14:03:38;18.30;48.30
20057;DHT22;10189;49.546;7.906;2022-09-23T14:06:08;18.60;46.80
20057;DHT22;10189;49.546;7.906;2022-09-23T14:08:38;18.70;42.80
20057;DHT22;10189;49.546;7.906;2022-09-23T14:11:27;18.70;43.20
20057;DHT22;10189;49.546;7.906;2022-09-23T14:13:56;18.70;42.80
20057;DHT22;10189;49.546;7.906;2022-09-23T14:16:24;18.70;42.70
20057;DHT22;10189;49.546;7.906;2022-09-23T14:18:56;18.60;43.10
20057;DHT22;10189;49.546;7.906;2022-09-23T14:21:32;18.50;43.20
20057;DHT22;10189;49.546;7.906;2022-09-23T14:26:35;18.10;43.80
20057;DHT22;10189;49.546;7.906;2022-09-23T14:29:02;18.00;44.30
20057;DHT22;10189;49.546;7.906;2022-09-23T14:31:29;17.90;44.20
20057;DHT22;10189;49.546;7.906;2022-09-23T14:33:57;17.70;46.30
20057;DHT22;10189;49.546;7.906;2022-09-23T14:36:23;17.60;43.80
20057;DHT22;10189;49.546;7.906;2022-09-23T14:39:09;17.60;44.20
20057;DHT22;10189;49.546;7.906;2022-09-23T14:41:43;17.50;44.10
20057;DHT22;10189;49.546;7.906;2022-09-23T14:44:23;17.50;45.00
20057;DHT22;10189;49.546;7.906;2022-09-23T14:46:59;17.40;45.50
20057;DHT22;10189;49.546;7.906;2022-09-23T14:49:25;17.40;45.70
20057;DHT22;10189;49.546;7.906;2022-09-23T14:51:58;17.40;46.90
20057;DHT22;10189;49.546;7.906;2022-09-23T14:57:18;17.20;48.70
20057;DHT22;10189;49.546;7.906;2022-09-23T14:59:51;17.10;49.10
20057;DHT22;10189;49.546;7.906;2022-09-23T15:02:29;17.20;48.60
20057;DHT22;10189;49.546;7.906;2022-09-23T15:07:49;17.10;48.50
20057;DHT22;10189;49.546;7.906;2022-09-23T15:12:49;17.20;49.10
20057;DHT22;10189;49.546;7.906;2022-09-23T15:15:17;17.30;50.50
20057;DHT22;10189;49.546;7.906;2022-09-23T15:17:44;17.30;50.40
20057;DHT22;10189;49.546;7.906;2022-09-23T15:20:21;17.20;50.80
20057;DHT22;10189;49.546;7.906;2022-09-23T15:22:51;17.00;50.80
20057;DHT22;10189;49.546;7.906;2022-09-23T15:25:23;17.10;50.80
20057;DHT22;10189;49.546;7.906;2022-09-23T15:27:59;17.00;52.40
20057;DHT22;10189;49.546;7.906;2022-09-23T15:30:28;16.90;51.60
20057;DHT22;10189;49.546;7.906;2022-09-23T15:32:56;16.80;51.60
20057;DHT22;10189;49.546;7.906;2022-09-23T15:35:23;16.80;51.40
20057;DHT22;10189;49.546;7.906;2022-09-23T15:37:55;16.70;52.40
20057;DHT22;10189;49.546;7.906;2022-09-23T15:40:34;16.70;53.50
20057;DHT22;10189;49.546;7.906;2022-09-23T15:43:11;16.70;52.10
20057;DHT22;10189;49.546;7.906;2022-09-23T15:45:49;16.70;52.20
20057;DHT22;10189;49.546;7.906;2022-09-23T15:48:26;16.70;51.00
20057;DHT22;10189;49.546;7.906;2022-09-23T15:50:56;16.80;50.70
20057;DHT22;10189;49.546;7.906;2022-09-23T15:53:27;16.80;53.00
20057;DHT22;10189;49.546;7.906;2022-09-23T15:55:52;16.80;53.60
20057;DHT22;10189;49.546;7.906;2022-09-23T15:58:19;16.70;54.80
20057;DHT22;10189;49.546;7.906;2022-09-23T16:00:50;16.70;56.10
20057;DHT22;10189;49.546;7.906;2022-09-23T16:03:17;16.70;57.30
20057;DHT22;10189;49.546;7.906;2022-09-23T16:05:50;16.50;58.30
20057;DHT22;10189;49.546;7.906;2022-09-23T16:08:16;16.30;58.90
20057;DHT22;10189;49.546;7.906;2022-09-23T16:10:47;16.10;58.80
20057;DHT22;10189;49.546;7.906;2022-09-23T16:13:14;15.90;59.50
20057;DHT22;10189;49.546;7.906;2022-09-23T16:15:41;15.80;59.80
20057;DHT22;10189;49.546;7.906;2022-09-23T16:18:08;15.70;61.50
20057;DHT22;10189;49.546;7.906;2022-09-23T16:20:38;15.50;62.00
20057;DHT22;10189;49.546;7.906;2022-09-23T16:23:09;15.40;62.90
20057;DHT22;10189;49.546;7.906;2022-09-23T16:26:01;15.30;63.90
20057;DHT22;10189;49.546;7.906;2022-09-23T16:28:27;15.10;63.50
20057;DHT22;10189;49.546;7.906;2022-09-23T16:30:53;15.00;63.60
20057;DHT22;10189;49.546;7.906;2022-09-23T16:33:19;15.00;64.50
20057;DHT22;10189;49.546;7.906;2022-09-23T16:35:45;14.80;65.80
20057;DHT22;10189;49.546;7.906;2022-09-23T16:38:10;14.80;65.40
20057;DHT22;10189;49.546;7.906;2022-09-23T16:40:36;14.70;64.80
20057;DHT22;10189;49.546;7.906;2022-09-23T16:43:02;14.60;65.70
20057;DHT22;10189;49.546;7.906;2022-09-23T16:45:29;14.40;66.80
20057;DHT22;10189;49.546;7.906;2022-09-23T16:47:56;14.30;67.50
20057;DHT22;10189;49.546;7.906;2022-09-23T16:50:22;14.20;68.20
20057;DHT22;10189;49.546;7.906;2022-09-23T16:52:53;14.10;68.90
20057;DHT22;10189;49.546;7.906;2022-09-23T16:55:23;13.90;69.40
20057;DHT22;10189;49.546;7.906;2022-09-23T16:57:51;13.80;69.80
20057;DHT22;10189;49.546;7.906;2022-09-23T17:00:19;13.70;70.40
20057;DHT22;10189;49.546;7.906;2022-09-23T17:03:05;13.60;71.10
20057;DHT22;10189;49.546;7.906;2022-09-23T17:06:03;13.40;71.20
20057;DHT22;10189;49.546;7.906;2022-09-23T17:08:29;13.30;72.50
20057;DHT22;10189;49.546;7.906;2022-09-23T17:10:57;13.10;73.00
20057;DHT22;10189;49.546;7.906;2022-09-23T17:13:25;13.00;73.30
20057;DHT22;10189;49.546;7.906;2022-09-23T17:15:53;12.90;73.80
20057;DHT22;10189;49.546;7.906;2022-09-23T17:18:19;12.80;74.40
20057;DHT22;10189;49.546;7.906;2022-09-23T17:20:59;12.60;74.90
20057;DHT22;10189;49.546;7.906;2022-09-23T17:23:31;12.50;75.40
20057;DHT22;10189;49.546;7.906;2022-09-23T17:26:00;12.40;75.60
20057;DHT22;10189;49.546;7.906;2022-09-23T17:28:27;12.30;76.10
20057;DHT22;10189;49.546;7.906;2022-09-23T17:30:58;12.20;76.40
20057;DHT22;10189;49.546;7.906;2022-09-23T17:33:26;12.10;76.30
20057;DHT22;10189;49.546;7.906;2022-09-23T17:35:54;12.00;76.70
20057;DHT22;10189;49.546;7.906;2022-09-23T17:38:24;12.00;77.00
20057;DHT22;10189;49.546;7.906;2022-09-23T17:40:52;11.90;77.40
20057;DHT22;10189;49.546;7.906;2022-09-23T17:43:21;11.90;77.70
20057;DHT22;10189;49.546;7.906;2022-09-23T17:45:51;11.80;78.30
20057;DHT22;10189;49.546;7.906;2022-09-23T17:48:19;11.70;78.90
20057;DHT22;10189;49.546;7.906;2022-09-23T17:50:56;11.60;79.60
20057;DHT22;10189;49.546;7.906;2022-09-23T17:53:34;11.50;79.50
20057;DHT22;10189;49.546;7.906;2022-09-23T17:56:05;11.40;79.50
20057;DHT22;10189;49.546;7.906;2022-09-23T17:58:40;11.40;79.90
20057;DHT22;10189;49.546;7.906;2022-09-23T18:01:12;11.30;80.30
20057;DHT22;10189;49.546;7.906;2022-09-23T18:03:40;11.20;80.80
20057;DHT22;10189;49.546;7.906;2022-09-23T18:06:17;11.20;81.50
20057;DHT22;10189;49.546;7.906;2022-09-23T18:08:47;11.10;81.80
20057;DHT22;10189;49.546;7.906;2022-09-23T18:11:26;11.00;82.20
20057;DHT22;10189;49.546;7.906;2022-09-23T18:13:58;10.90;82.20
20057;DHT22;10189;49.546;7.906;2022-09-23T18:16:30;10.80;82.20
20057;DHT22;10189;49.546;7.906;2022-09-23T18:19:00;10.80;82.00
20057;DHT22;10189;49.546;7.906;2022-09-23T18:21:30;10.70;82.30
20057;DHT22;10189;49.546;7.906;2022-09-23T18:24:01;10.70;82.50
20057;DHT22;10189;49.546;7.906;2022-09-23T18:26:27;10.70;83.10
20057;DHT22;10189;49.546;7.906;2022-09-23T18:28:57;10.60;83.40
20057;DHT22;10189;49.546;7.906;2022-09-23T18:31:24;10.60;83.60
20057;DHT22;10189;49.546;7.906;2022-09-23T18:33:53;10.50;83.60
20057;DHT22;10189;49.546;7.906;2022-09-23T18:36:21;10.50;83.80
20057;DHT22;10189;49.546;7.906;2022-09-23T18:38:48;10.40;84.10
20057;DHT22;10189;49.546;7.906;2022-09-23T18:41:15;10.40;84.00
20057;DHT22;10189;49.546;7.906;2022-09-23T18:43:42;10.30;84.00
20057;DHT22;10189;49.546;7.906;2022-09-23T18:46:15;10.30;84.30
20057;DHT22;10189;49.546;7.906;2022-09-23T18:48:44;10.20;84.30